KAEX

Alexandria International Airport

Alexandria, Louisiana, USA
KAEX 181720Z 1818/1918 28005KT P6SM VCSH SCT035 BKN090 FM190200 VRB03KT P6SM BKN250 FM191500 26006KT P6SM BKN100
Issued Valid From Valid To
Jul-18 @ 17:20 UTC
(5 hours ago)
Jul-18 @ 18:00 UTC
(4 hours ago)
Jul-19 @ 18:00 UTC
(in 20 hours)
Jul-18 @ 18:00 to Jul-19 @ 02:00
KAEX 181720Z 1818/1918 28005KT P6SM VCSH SCT035 BKN090
Wind Visibility Clouds
280° at 5 knots Greater than 6 miles
  • Scattered at 3,500' AGL
  • Broken at 9,000' AGL
From Jul-19 @ 02:00 to Jul-19 @ 15:00
FM190200 VRB03KT P6SM BKN250
Wind Visibility Clouds
Variable at 3 knots Greater than 6 miles
  • Broken at 25,000' AGL
From Jul-19 @ 15:00 to Jul-19 @ 18:00
FM191500 26006KT P6SM BKN100
Wind Visibility Clouds
260° at 6 knots Greater than 6 miles
  • Broken at 10,000' AGL
KAEX 181720Z 1818/1918 28005KT P6SM VCSH SCT035 BKN090 FM190200 VRB03KT P6SM BKN250 FM191500 26006KT P6SM BKN100
Issued Jul-18 @ 17:20 UTC
(5 hours ago)
Valid From Jul-18 @ 18:00 UTC
(4 hours ago)
Valid To Jul-19 @ 18:00 UTC
(in 20 hours)
Jul-18 @ 18:00 - Jul-19 @ 02:00
Wind Visibility
280° at 5 knots Greater than 6 miles
Clouds
  • Scattered at 3,500' AGL
  • Broken at 9,000' AGL
From Jul-19 @ 02:00 - Jul-19 @ 15:00
Wind Visibility
Variable at 3 knots Greater than 6 miles
Clouds
  • Broken at 25,000' AGL
From Jul-19 @ 15:00 - Jul-19 @ 18:00
Wind Visibility
260° at 6 knots Greater than 6 miles
Clouds
  • Broken at 10,000' AGL